sensor_id;sensor_type;location;lat;lon;timestamp;temperature;humidity
47434;SHT31;33184;48.774;8.918;2023-07-08T00:03:23;21.09;47.19
47434;SHT31;33184;48.774;8.918;2023-07-08T00:08:43;20.95;46.87
47434;SHT31;33184;48.774;8.918;2023-07-08T00:14:04;20.94;46.87
47434;SHT31;33184;48.774;8.918;2023-07-08T00:19:24;20.94;49.24
47434;SHT31;33184;48.774;8.918;2023-07-08T00:24:45;20.78;49.92
47434;SHT31;33184;48.774;8.918;2023-07-08T00:30:23;20.42;50.65
47434;SHT31;33184;48.774;8.918;2023-07-08T00:35:45;20.17;50.74
47434;SHT31;33184;48.774;8.918;2023-07-08T00:41:06;20.09;51.01
47434;SHT31;33184;48.774;8.918;2023-07-08T00:51:51;19.93;51.66
47434;SHT31;33184;48.774;8.918;2023-07-08T00:57:12;19.89;51.49
47434;SHT31;33184;48.774;8.918;2023-07-08T01:02:38;19.91;52.05
47434;SHT31;33184;48.774;8.918;2023-07-08T01:08:02;19.76;52.36
47434;SHT31;33184;48.774;8.918;2023-07-08T01:13:23;19.52;53.07
47434;SHT31;33184;48.774;8.918;2023-07-08T01:18:44;19.48;53.03
47434;SHT31;33184;48.774;8.918;2023-07-08T01:24:13;19.16;53.23
47434;SHT31;33184;48.774;8.918;2023-07-08T01:29:34;18.85;54.54
47434;SHT31;33184;48.774;8.918;2023-07-08T01:34:58;18.77;54.54
47434;SHT31;33184;48.774;8.918;2023-07-08T01:40:26;18.81;54.62
47434;SHT31;33184;48.774;8.918;2023-07-08T01:45:49;18.88;54.49
47434;SHT31;33184;48.774;8.918;2023-07-08T01:51:11;18.91;54.74
47434;SHT31;33184;48.774;8.918;2023-07-08T01:56:32;18.92;54.96
47434;SHT31;33184;48.774;8.918;2023-07-08T02:01:52;18.84;55.18
47434;SHT31;33184;48.774;8.918;2023-07-08T02:07:15;18.87;55.61
47434;SHT31;33184;48.774;8.918;2023-07-08T02:12:36;18.70;55.04
47434;SHT31;33184;48.774;8.918;2023-07-08T02:17:57;18.59;56.18
47434;SHT31;33184;48.774;8.918;2023-07-08T02:23:18;18.70;55.95
47434;SHT31;33184;48.774;8.918;2023-07-08T02:28:38;18.64;56.27
47434;SHT31;33184;48.774;8.918;2023-07-08T02:33:59;18.68;56.16
47434;SHT31;33184;48.774;8.918;2023-07-08T02:39:23;18.63;56.48
47434;SHT31;33184;48.774;8.918;2023-07-08T02:44:43;18.49;57.24
47434;SHT31;33184;48.774;8.918;2023-07-08T02:50:04;18.44;56.62
47434;SHT31;33184;48.774;8.918;2023-07-08T02:55:25;18.23;57.67
47434;SHT31;33184;48.774;8.918;2023-07-08T03:00:51;18.16;57.45
47434;SHT31;33184;48.774;8.918;2023-07-08T03:06:12;17.89;58.37
47434;SHT31;33184;48.774;8.918;2023-07-08T03:11:34;17.99;58.36
47434;SHT31;33184;48.774;8.918;2023-07-08T03:16:54;17.88;58.29
47434;SHT31;33184;48.774;8.918;2023-07-08T03:22:15;17.89;58.72
47434;SHT31;33184;48.774;8.918;2023-07-08T03:27:35;17.81;58.48
47434;SHT31;33184;48.774;8.918;2023-07-08T03:32:56;17.95;57.97
47434;SHT31;33184;48.774;8.918;2023-07-08T03:38:17;18.00;57.57
47434;SHT31;33184;48.774;8.918;2023-07-08T03:43:37;17.79;58.59
47434;SHT31;33184;48.774;8.918;2023-07-08T03:48:58;17.75;58.71
47434;SHT31;33184;48.774;8.918;2023-07-08T03:54:20;17.79;59.61
47434;SHT31;33184;48.774;8.918;2023-07-08T03:59:42;17.72;59.41
47434;SHT31;33184;48.774;8.918;2023-07-08T04:05:03;17.72;59.96
47434;SHT31;33184;48.774;8.918;2023-07-08T04:10:23;17.88;59.57
47434;SHT31;33184;48.774;8.918;2023-07-08T04:15:44;18.17;59.62
47434;SHT31;33184;48.774;8.918;2023-07-08T04:21:05;18.27;60.13
47434;SHT31;33184;48.774;8.918;2023-07-08T04:26:26;18.37;59.63
47434;SHT31;33184;48.774;8.918;2023-07-08T04:31:47;18.32;59.76
47434;SHT31;33184;48.774;8.918;2023-07-08T04:37:11;18.34;59.22
47434;SHT31;33184;48.774;8.918;2023-07-08T04:42:31;18.29;60.37
47434;SHT31;33184;48.774;8.918;2023-07-08T04:47:52;18.19;61.34
47434;SHT31;33184;48.774;8.918;2023-07-08T04:53:13;18.19;60.86
47434;SHT31;33184;48.774;8.918;2023-07-08T04:58:33;18.37;60.64
47434;SHT31;33184;48.774;8.918;2023-07-08T05:03:54;18.56;60.26
47434;SHT31;33184;48.774;8.918;2023-07-08T05:09:14;18.61;60.07
47434;SHT31;33184;48.774;8.918;2023-07-08T05:14:35;18.98;58.21
47434;SHT31;33184;48.774;8.918;2023-07-08T05:19:55;19.45;57.56
47434;SHT31;33184;48.774;8.918;2023-07-08T05:25:20;19.83;56.89
47434;SHT31;33184;48.774;8.918;2023-07-08T05:30:42;20.24;56.01
47434;SHT31;33184;48.774;8.918;2023-07-08T05:36:03;20.56;54.77
47434;SHT31;33184;48.774;8.918;2023-07-08T05:41:23;20.82;53.45
47434;SHT31;33184;48.774;8.918;2023-07-08T05:46:44;21.07;53.21
47434;SHT31;33184;48.774;8.918;2023-07-08T05:52:05;21.29;52.32
47434;SHT31;33184;48.774;8.918;2023-07-08T05:57:30;21.46;51.18
47434;SHT31;33184;48.774;8.918;2023-07-08T06:02:51;21.66;50.32
47434;SHT31;33184;48.774;8.918;2023-07-08T06:08:11;21.78;49.88
47434;SHT31;33184;48.774;8.918;2023-07-08T06:13:32;22.08;48.57
47434;SHT31;33184;48.774;8.918;2023-07-08T06:18:53;22.33;47.97
47434;SHT31;33184;48.774;8.918;2023-07-08T06:24:13;22.71;46.27
47434;SHT31;33184;48.774;8.918;2023-07-08T06:29:34;23.03;45.90
47434;SHT31;33184;48.774;8.918;2023-07-08T06:34:55;23.47;45.39
47434;SHT31;33184;48.774;8.918;2023-07-08T06:40:16;24.09;44.26
47434;SHT31;33184;48.774;8.918;2023-07-08T06:45:38;24.33;44.36
47434;SHT31;33184;48.774;8.918;2023-07-08T06:50:58;24.36;44.25
47434;SHT31;33184;48.774;8.918;2023-07-08T06:56:19;24.26;45.09
47434;SHT31;33184;48.774;8.918;2023-07-08T07:01:40;24.19;45.62
47434;SHT31;33184;48.774;8.918;2023-07-08T07:07:00;24.20;45.79
47434;SHT31;33184;48.774;8.918;2023-07-08T07:12:23;24.23;46.41
47434;SHT31;33184;48.774;8.918;2023-07-08T07:17:44;24.28;46.34
47434;SHT31;33184;48.774;8.918;2023-07-08T07:23:05;24.26;46.19
47434;SHT31;33184;48.774;8.918;2023-07-08T07:28:25;24.25;46.51
47434;SHT31;33184;48.774;8.918;2023-07-08T07:33:46;24.28;46.13
47434;SHT31;33184;48.774;8.918;2023-07-08T07:39:06;24.53;46.09
47434;SHT31;33184;48.774;8.918;2023-07-08T07:44:27;24.70;45.80
47434;SHT31;33184;48.774;8.918;2023-07-08T07:49:48;25.04;45.50
47434;SHT31;33184;48.774;8.918;2023-07-08T07:55:08;25.20;44.48
47434;SHT31;33184;48.774;8.918;2023-07-08T08:00:29;25.13;43.87
47434;SHT31;33184;48.774;8.918;2023-07-08T08:05:50;25.61;42.93
47434;SHT31;33184;48.774;8.918;2023-07-08T08:11:11;25.78;41.12
47434;SHT31;33184;48.774;8.918;2023-07-08T08:16:32;25.66;41.50
47434;SHT31;33184;48.774;8.918;2023-07-08T08:21:52;25.84;42.03
47434;SHT31;33184;48.774;8.918;2023-07-08T08:27:13;25.89;40.05
47434;SHT31;33184;48.774;8.918;2023-07-08T08:32:33;25.95;41.66
47434;SHT31;33184;48.774;8.918;2023-07-08T08:37:54;26.23;38.50
47434;SHT31;33184;48.774;8.918;2023-07-08T08:43:18;26.19;40.20
47434;SHT31;33184;48.774;8.918;2023-07-08T08:48:59;26.51;39.23
47434;SHT31;33184;48.774;8.918;2023-07-08T08:54:24;26.60;38.76
47434;SHT31;33184;48.774;8.918;2023-07-08T09:05:08;26.91;38.27
47434;SHT31;33184;48.774;8.918;2023-07-08T09:10:44;27.02;38.92
47434;SHT31;33184;48.774;8.918;2023-07-08T09:22:00;27.23;39.55
47434;SHT31;33184;48.774;8.918;2023-07-08T09:27:21;27.37;37.85
47434;SHT31;33184;48.774;8.918;2023-07-08T09:32:42;27.33;37.85
47434;SHT31;33184;48.774;8.918;2023-07-08T09:38:14;27.23;37.99
47434;SHT31;33184;48.774;8.918;2023-07-08T09:43:37;27.45;36.73
47434;SHT31;33184;48.774;8.918;2023-07-08T09:48:58;27.42;38.27
47434;SHT31;33184;48.774;8.918;2023-07-08T09:54:20;27.82;40.69
47434;SHT31;33184;48.774;8.918;2023-07-08T10:00:03;28.20;39.19
47434;SHT31;33184;48.774;8.918;2023-07-08T10:05:38;28.31;38.44
47434;SHT31;33184;48.774;8.918;2023-07-08T10:11:03;28.38;38.18
47434;SHT31;33184;48.774;8.918;2023-07-08T10:16:32;28.55;38.77
47434;SHT31;33184;48.774;8.918;2023-07-08T10:22:30;28.74;37.95
47434;SHT31;33184;48.774;8.918;2023-07-08T10:28:21;28.79;36.91
47434;SHT31;33184;48.774;8.918;2023-07-08T10:34:18;29.13;37.50
47434;SHT31;33184;48.774;8.918;2023-07-08T10:39:55;29.54;37.19
47434;SHT31;33184;48.774;8.918;2023-07-08T10:45:30;29.74;35.24
47434;SHT31;33184;48.774;8.918;2023-07-08T10:51:10;30.11;32.75
47434;SHT31;33184;48.774;8.918;2023-07-08T10:56:55;30.27;32.01
47434;SHT31;33184;48.774;8.918;2023-07-08T11:08:40;31.22;32.89
47434;SHT31;33184;48.774;8.918;2023-07-08T11:14:11;31.44;31.39
47434;SHT31;33184;48.774;8.918;2023-07-08T11:19:44;31.76;31.75
47434;SHT31;33184;48.774;8.918;2023-07-08T11:25:16;31.69;29.71
47434;SHT31;33184;48.774;8.918;2023-07-08T11:30:38;32.02;29.05
47434;SHT31;33184;48.774;8.918;2023-07-08T11:36:03;32.85;30.51
47434;SHT31;33184;48.774;8.918;2023-07-08T11:41:27;33.51;29.57
47434;SHT31;33184;48.774;8.918;2023-07-08T11:46:55;33.46;28.20
47434;SHT31;33184;48.774;8.918;2023-07-08T11:52:18;34.07;28.90
47434;SHT31;33184;48.774;8.918;2023-07-08T11:57:42;34.12;26.76
47434;SHT31;33184;48.774;8.918;2023-07-08T12:03:23;32.78;29.25
47434;SHT31;33184;48.774;8.918;2023-07-08T12:08:48;32.66;28.70
47434;SHT31;33184;48.774;8.918;2023-07-08T12:14:09;33.82;28.41
47434;SHT31;33184;48.774;8.918;2023-07-08T12:19:30;33.47;28.59
47434;SHT31;33184;48.774;8.918;2023-07-08T12:24:52;34.00;27.99
47434;SHT31;33184;48.774;8.918;2023-07-08T12:30:14;34.04;28.56
47434;SHT31;33184;48.774;8.918;2023-07-08T12:35:35;33.86;27.87
47434;SHT31;33184;48.774;8.918;2023-07-08T12:40:58;34.04;27.61
47434;SHT31;33184;48.774;8.918;2023-07-08T12:46:21;33.68;28.48
47434;SHT31;33184;48.774;8.918;2023-07-08T12:51:44;34.75;26.79
47434;SHT31;33184;48.774;8.918;2023-07-08T12:57:05;34.72;26.62
47434;SHT31;33184;48.774;8.918;2023-07-08T13:02:30;35.19;26.06
47434;SHT31;33184;48.774;8.918;2023-07-08T13:07:52;35.95;26.06
47434;SHT31;33184;48.774;8.918;2023-07-08T13:13:20;36.79;24.94
47434;SHT31;33184;48.774;8.918;2023-07-08T13:18:41;36.02;26.40
47434;SHT31;33184;48.774;8.918;2023-07-08T13:24:08;36.28;24.88
47434;SHT31;33184;48.774;8.918;2023-07-08T13:29:34;36.21;24.82
47434;SHT31;33184;48.774;8.918;2023-07-08T13:34:55;36.25;24.56
47434;SHT31;33184;48.774;8.918;2023-07-08T13:40:16;36.95;24.26
47434;SHT31;33184;48.774;8.918;2023-07-08T13:45:37;36.39;24.28
47434;SHT31;33184;48.774;8.918;2023-07-08T13:56:33;36.68;23.98
47434;SHT31;33184;48.774;8.918;2023-07-08T14:01:57;36.31;23.76
47434;SHT31;33184;48.774;8.918;2023-07-08T14:07:20;36.36;24.14
47434;SHT31;33184;48.774;8.918;2023-07-08T14:12:41;37.70;23.72
47434;SHT31;33184;48.774;8.918;2023-07-08T14:18:02;38.32;23.05
47434;SHT31;33184;48.774;8.918;2023-07-08T14:23:23;38.48;23.16
47434;SHT31;33184;48.774;8.918;2023-07-08T14:28:44;38.92;21.91
47434;SHT31;33184;48.774;8.918;2023-07-08T14:34:12;38.55;23.21
47434;SHT31;33184;48.774;8.918;2023-07-08T14:39:32;38.63;22.51
47434;SHT31;33184;48.774;8.918;2023-07-08T14:44:53;36.78;23.56
47434;SHT31;33184;48.774;8.918;2023-07-08T14:50:15;35.37;24.92
47434;SHT31;33184;48.774;8.918;2023-07-08T14:55:36;34.19;26.39
47434;SHT31;33184;48.774;8.918;2023-07-08T15:00:58;33.77;26.99
47434;SHT31;33184;48.774;8.918;2023-07-08T15:06:19;32.92;27.73
47434;SHT31;33184;48.774;8.918;2023-07-08T15:11:41;32.45;28.42
47434;SHT31;33184;48.774;8.918;2023-07-08T15:17:01;32.89;28.67
47434;SHT31;33184;48.774;8.918;2023-07-08T15:22:22;32.99;28.03
47434;SHT31;33184;48.774;8.918;2023-07-08T15:27:50;32.55;28.52
47434;SHT31;33184;48.774;8.918;2023-07-08T15:33:14;32.75;29.12
47434;SHT31;33184;48.774;8.918;2023-07-08T15:38:35;32.98;28.25
47434;SHT31;33184;48.774;8.918;2023-07-08T15:43:56;33.74;26.91
47434;SHT31;33184;48.774;8.918;2023-07-08T15:49:23;34.38;26.20
47434;SHT31;33184;48.774;8.918;2023-07-08T15:54:44;34.83;25.53
47434;SHT31;33184;48.774;8.918;2023-07-08T16:00:06;35.29;26.04
47434;SHT31;33184;48.774;8.918;2023-07-08T16:05:28;35.58;25.28
47434;SHT31;33184;48.774;8.918;2023-07-08T16:11:01;35.64;25.68
47434;SHT31;33184;48.774;8.918;2023-07-08T16:16:23;35.14;26.08
47434;SHT31;33184;48.774;8.918;2023-07-08T16:21:44;34.52;25.72
47434;SHT31;33184;48.774;8.918;2023-07-08T16:27:05;34.19;26.62
47434;SHT31;33184;48.774;8.918;2023-07-08T16:32:26;34.14;26.81
47434;SHT31;33184;48.774;8.918;2023-07-08T16:37:51;34.18;26.55
47434;SHT31;33184;48.774;8.918;2023-07-08T16:43:29;34.52;26.39
47434;SHT31;33184;48.774;8.918;2023-07-08T16:48:50;34.04;26.33
47434;SHT31;33184;48.774;8.918;2023-07-08T16:54:14;33.76;26.57
47434;SHT31;33184;48.774;8.918;2023-07-08T16:59:36;34.04;26.49
47434;SHT31;33184;48.774;8.918;2023-07-08T17:04:56;33.70;26.67
47434;SHT31;33184;48.774;8.918;2023-07-08T17:10:18;33.54;26.93
47434;SHT31;33184;48.774;8.918;2023-07-08T17:15:39;33.17;27.33
47434;SHT31;33184;48.774;8.918;2023-07-08T17:21:00;32.66;27.75
47434;SHT31;33184;48.774;8.918;2023-07-08T17:26:21;32.41;28.08
47434;SHT31;33184;48.774;8.918;2023-07-08T17:31:42;32.31;28.92
47434;SHT31;33184;48.774;8.918;2023-07-08T17:37:03;32.01;28.82
47434;SHT31;33184;48.774;8.918;2023-07-08T17:42:24;32.07;29.31
47434;SHT31;33184;48.774;8.918;2023-07-08T17:47:46;31.87;29.62
47434;SHT31;33184;48.774;8.918;2023-07-08T17:53:09;31.47;30.28
47434;SHT31;33184;48.774;8.918;2023-07-08T17:58:32;31.33;30.48
47434;SHT31;33184;48.774;8.918;2023-07-08T18:03:54;31.29;30.40
47434;SHT31;33184;48.774;8.918;2023-07-08T18:09:14;31.19;30.58
47434;SHT31;33184;48.774;8.918;2023-07-08T18:14:35;31.08;30.69
47434;SHT31;33184;48.774;8.918;2023-07-08T18:19:55;30.85;31.28
47434;SHT31;33184;48.774;8.918;2023-07-08T18:25:21;30.72;31.53
47434;SHT31;33184;48.774;8.918;2023-07-08T18:30:43;30.59;31.72
47434;SHT31;33184;48.774;8.918;2023-07-08T18:36:04;30.44;32.14
47434;SHT31;33184;48.774;8.918;2023-07-08T18:41:30;30.38;32.41
47434;SHT31;33184;48.774;8.918;2023-07-08T18:46:54;30.17;32.83
47434;SHT31;33184;48.774;8.918;2023-07-08T18:52:15;30.00;33.28
47434;SHT31;33184;48.774;8.918;2023-07-08T18:57:37;29.84;33.41
47434;SHT31;33184;48.774;8.918;2023-07-08T19:02:59;29.64;33.82
47434;SHT31;33184;48.774;8.918;2023-07-08T19:08:21;29.45;34.11
47434;SHT31;33184;48.774;8.918;2023-07-08T19:13:42;29.25;34.51
47434;SHT31;33184;48.774;8.918;2023-07-08T19:19:03;28.98;34.76
47434;SHT31;33184;48.774;8.918;2023-07-08T19:24:24;28.79;35.12
47434;SHT31;33184;48.774;8.918;2023-07-08T19:29:44;28.58;35.96
47434;SHT31;33184;48.774;8.918;2023-07-08T19:35:11;28.48;36.36
47434;SHT31;33184;48.774;8.918;2023-07-08T19:40:32;28.43;36.92
47434;SHT31;33184;48.774;8.918;2023-07-08T19:45:53;28.28;37.57
47434;SHT31;33184;48.774;8.918;2023-07-08T19:51:14;28.13;37.94
47434;SHT31;33184;48.774;8.918;2023-07-08T19:56:34;27.93;38.14
47434;SHT31;33184;48.774;8.918;2023-07-08T20:01:55;27.86;38.37
47434;SHT31;33184;48.774;8.918;2023-07-08T20:07:17;27.85;38.73
47434;SHT31;33184;48.774;8.918;2023-07-08T20:12:38;27.39;40.83
47434;SHT31;33184;48.774;8.918;2023-07-08T20:17:59;27.12;41.66
47434;SHT31;33184;48.774;8.918;2023-07-08T20:23:19;27.02;42.08
47434;SHT31;33184;48.774;8.918;2023-07-08T20:28:40;26.78;42.91
47434;SHT31;33184;48.774;8.918;2023-07-08T20:34:00;26.67;42.86
47434;SHT31;33184;48.774;8.918;2023-07-08T20:39:21;26.56;43.99
47434;SHT31;33184;48.774;8.918;2023-07-08T20:44:46;26.13;45.19
47434;SHT31;33184;48.774;8.918;2023-07-08T20:50:15;25.99;46.17
47434;SHT31;33184;48.774;8.918;2023-07-08T20:55:36;25.95;45.81
47434;SHT31;33184;48.774;8.918;2023-07-08T21:00:56;26.13;45.04
47434;SHT31;33184;48.774;8.918;2023-07-08T21:06:26;25.90;45.31
47434;SHT31;33184;48.774;8.918;2023-07-08T21:11:47;25.75;46.51
47434;SHT31;33184;48.774;8.918;2023-07-08T21:17:16;25.54;45.75
47434;SHT31;33184;48.774;8.918;2023-07-08T21:22:38;25.59;46.62
47434;SHT31;33184;48.774;8.918;2023-07-08T21:27:58;25.24;47.86
47434;SHT31;33184;48.774;8.918;2023-07-08T21:33:19;24.84;48.62
47434;SHT31;33184;48.774;8.918;2023-07-08T21:38:39;24.81;48.98
47434;SHT31;33184;48.774;8.918;2023-07-08T21:44:00;24.71;48.56
47434;SHT31;33184;48.774;8.918;2023-07-08T21:49:20;24.66;48.81
47434;SHT31;33184;48.774;8.918;2023-07-08T21:54:41;24.76;48.73
47434;SHT31;33184;48.774;8.918;2023-07-08T22:00:02;24.88;48.89
47434;SHT31;33184;48.774;8.918;2023-07-08T22:05:23;24.60;49.98
47434;SHT31;33184;48.774;8.918;2023-07-08T22:10:46;24.53;49.85
47434;SHT31;33184;48.774;8.918;2023-07-08T22:16:10;24.25;50.94
47434;SHT31;33184;48.774;8.918;2023-07-08T22:21:33;24.12;50.94
47434;SHT31;33184;48.774;8.918;2023-07-08T22:26:54;24.13;50.78
47434;SHT31;33184;48.774;8.918;2023-07-08T22:32:14;24.06;50.88
47434;SHT31;33184;48.774;8.918;2023-07-08T22:37:35;24.16;51.20
47434;SHT31;33184;48.774;8.918;2023-07-08T22:42:57;24.05;50.98
47434;SHT31;33184;48.774;8.918;2023-07-08T22:48:18;23.58;51.50
47434;SHT31;33184;48.774;8.918;2023-07-08T22:53:39;23.46;52.76
47434;SHT31;33184;48.774;8.918;2023-07-08T22:59:00;23.31;53.83
47434;SHT31;33184;48.774;8.918;2023-07-08T23:04:21;23.14;54.19
47434;SHT31;33184;48.774;8.918;2023-07-08T23:09:41;23.12;54.46
47434;SHT31;33184;48.774;8.918;2023-07-08T23:15:02;23.03;54.98
47434;SHT31;33184;48.774;8.918;2023-07-08T23:20:23;22.89;55.33
47434;SHT31;33184;48.774;8.918;2023-07-08T23:25:43;22.86;55.23
47434;SHT31;33184;48.774;8.918;2023-07-08T23:31:04;22.83;55.69
47434;SHT31;33184;48.774;8.918;2023-07-08T23:36:44;22.83;55.75
47434;SHT31;33184;48.774;8.918;2023-07-08T23:42:12;22.92;55.53
47434;SHT31;33184;48.774;8.918;2023-07-08T23:47:34;22.87;55.80
47434;SHT31;33184;48.774;8.918;2023-07-08T23:52:55;22.77;55.98
47434;SHT31;33184;48.774;8.918;2023-07-08T23:58:22;22.63;56.58
